createdAt,value
2023-01-09T00:02:16.201Z,6.52
2023-01-09T00:05:01.063Z,6.56
2023-01-09T00:07:46.644Z,6.54
2023-01-09T00:10:31.988Z,6.56
2023-01-09T00:13:18.226Z,6.58
2023-01-09T00:16:05.373Z,6.61
2023-01-09T00:18:50.942Z,6.61
2023-01-09T00:21:36.996Z,6.60
2023-01-09T00:24:23.336Z,6.64
2023-01-09T00:27:08.632Z,6.64
2023-01-09T00:29:53.817Z,6.62
2023-01-09T00:32:38.784Z,6.63
2023-01-09T00:35:26.674Z,6.61
2023-01-09T00:38:11.696Z,6.61
2023-01-09T00:40:57.123Z,6.59
2023-01-09T00:43:51.274Z,6.50
2023-01-09T00:46:39.604Z,6.56
2023-01-09T00:49:25.470Z,6.54
2023-01-09T00:52:13.536Z,6.50
2023-01-09T00:54:59.592Z,6.48
2023-01-09T00:57:45.202Z,6.45
2023-01-09T01:00:30.369Z,6.48
2023-01-09T01:03:15.380Z,6.39
2023-01-09T01:06:19.279Z,6.47
2023-01-09T01:09:04.400Z,6.48
2023-01-09T01:11:49.442Z,6.38
2023-01-09T01:14:36.932Z,6.47
2023-01-09T01:17:21.949Z,6.47
2023-01-09T01:20:11.041Z,6.48
2023-01-09T01:22:56.215Z,6.44
2023-01-09T01:25:42.163Z,6.47
2023-01-09T01:28:27.105Z,6.47
2023-01-09T01:31:17.850Z,6.49
2023-01-09T01:34:03.400Z,6.46
2023-01-09T01:36:48.546Z,6.46
2023-01-09T01:39:33.700Z,6.41
2023-01-09T01:42:19.072Z,6.28
2023-01-09T01:45:20.412Z,6.34
2023-01-09T01:48:12.667Z,6.30
2023-01-09T01:51:05.838Z,6.28
2023-01-09T01:53:59.787Z,6.29
2023-01-09T01:56:48.994Z,6.31
2023-01-09T01:59:40.821Z,6.33
2023-01-09T02:02:29.349Z,6.33
2023-01-09T02:05:14.668Z,6.34
2023-01-09T02:07:59.959Z,6.32
2023-01-09T02:10:45.886Z,6.38
2023-01-09T02:13:34.500Z,6.34
2023-01-09T02:16:29.411Z,6.37
2023-01-09T02:19:30.056Z,6.31
2023-01-09T02:22:43.561Z,6.38
2023-01-09T02:26:19.569Z,6.33
2023-01-09T02:29:43.914Z,6.33
2023-01-09T02:32:49.408Z,6.36
2023-01-09T02:35:43.841Z,6.35
2023-01-09T02:38:58.109Z,6.30
2023-01-09T02:42:04.115Z,6.27
2023-01-09T02:44:50.549Z,6.25
2023-01-09T02:47:41.363Z,6.19
2023-01-09T02:50:41.823Z,6.17
2023-01-09T02:53:39.254Z,6.05
2023-01-09T02:56:51.797Z,6.03
2023-01-09T02:59:40.086Z,5.93
2023-01-09T03:02:40.871Z,5.99
2023-01-09T03:05:33.858Z,5.91
2023-01-09T03:08:27.553Z,5.91
2023-01-09T03:11:12.901Z,5.89
2023-01-09T03:14:05.357Z,5.86
2023-01-09T03:16:56.717Z,5.73
2023-01-09T03:19:45.008Z,5.79
2023-01-09T03:22:30.178Z,5.67
2023-01-09T03:25:18.223Z,5.75
2023-01-09T03:28:09.346Z,5.69
2023-01-09T03:30:54.460Z,5.56
2023-01-09T03:33:39.987Z,5.66
2023-01-09T03:36:25.367Z,5.55
2023-01-09T03:39:10.874Z,5.61
2023-01-09T03:41:56.129Z,5.56
2023-01-09T03:44:41.321Z,5.46
2023-01-09T03:47:26.259Z,5.52
2023-01-09T03:50:11.577Z,5.52
2023-01-09T03:52:57.075Z,5.46
2023-01-09T03:55:52.287Z,5.41
2023-01-09T03:58:37.248Z,5.45
2023-01-09T04:01:22.252Z,5.43
2023-01-09T04:04:07.373Z,5.41
2023-01-09T04:06:52.647Z,5.43
2023-01-09T04:09:38.038Z,5.37
2023-01-09T04:12:23.092Z,5.34
2023-01-09T04:15:08.730Z,5.33
2023-01-09T04:17:53.840Z,5.21
2023-01-09T04:20:39.019Z,5.29
2023-01-09T04:23:24.243Z,5.25
2023-01-09T04:26:09.080Z,5.15
2023-01-09T04:28:54.388Z,5.13
2023-01-09T04:31:39.326Z,5.19
2023-01-09T04:34:25.785Z,5.19
2023-01-09T04:37:11.186Z,5.17
2023-01-09T04:39:56.297Z,5.15
2023-01-09T04:42:41.812Z,5.05
2023-01-09T04:45:26.959Z,5.15
2023-01-09T04:48:12.087Z,5.15
2023-01-09T04:50:56.974Z,5.06
2023-01-09T04:53:42.006Z,5.15
2023-01-09T04:56:26.989Z,5.16
2023-01-09T04:59:12.219Z,5.13
2023-01-09T05:01:58.391Z,5.12
2023-01-09T05:04:43.620Z,5.08
2023-01-09T05:07:28.608Z,5.11
2023-01-09T05:10:13.662Z,5.10
2023-01-09T05:12:58.878Z,5.08
2023-01-09T05:15:43.853Z,5.00
2023-01-09T05:18:28.794Z,5.05
2023-01-09T05:21:14.753Z,5.05
2023-01-09T05:23:59.886Z,5.08
2023-01-09T05:26:45.278Z,5.05
2023-01-09T05:29:30.112Z,5.06
2023-01-09T05:32:15.128Z,4.97
2023-01-09T05:35:00.473Z,5.08
2023-01-09T05:37:46.551Z,5.05
2023-01-09T05:40:38.573Z,4.93
2023-01-09T05:43:25.358Z,5.08
2023-01-09T05:46:10.747Z,5.01
2023-01-09T05:48:55.776Z,5.06
2023-01-09T05:51:40.886Z,5.05
2023-01-09T05:54:26.128Z,5.05
2023-01-09T05:57:11.356Z,5.05
2023-01-09T05:59:56.253Z,4.90
2023-01-09T06:02:41.442Z,4.97
2023-01-09T06:05:26.575Z,4.88
2023-01-09T06:08:11.648Z,4.98
2023-01-09T06:10:56.819Z,4.98
2023-01-09T06:13:41.923Z,4.97
2023-01-09T06:16:26.993Z,4.99
2023-01-09T06:19:11.961Z,5.01
2023-01-09T06:21:56.929Z,5.02
2023-01-09T06:24:41.757Z,5.01
2023-01-09T06:27:26.783Z,5.03
2023-01-09T06:30:12.483Z,5.01
2023-01-09T06:32:57.480Z,5.00
2023-01-09T06:35:42.684Z,5.02
2023-01-09T06:38:27.648Z,5.00
2023-01-09T06:41:13.193Z,4.98
2023-01-09T06:43:58.434Z,4.88
2023-01-09T06:46:43.539Z,4.96
2023-01-09T06:49:28.633Z,4.91
2023-01-09T06:52:13.955Z,4.86
2023-01-09T06:54:59.166Z,4.93
2023-01-09T06:57:44.472Z,4.93
2023-01-09T07:00:31.337Z,4.95
2023-01-09T07:03:22.010Z,4.97
2023-01-09T07:06:07.559Z,4.92
2023-01-09T07:08:52.940Z,4.95
2023-01-09T07:11:38.346Z,4.75
2023-01-09T07:14:23.628Z,4.92
2023-01-09T07:17:12.096Z,4.93
2023-01-09T07:19:57.119Z,4.92
2023-01-09T07:22:42.339Z,4.89
2023-01-09T07:25:27.364Z,4.92
2023-01-09T07:28:12.388Z,4.93
2023-01-09T07:31:02.506Z,4.92
2023-01-09T07:33:47.836Z,4.93
2023-01-09T07:36:32.844Z,4.95
2023-01-09T07:39:18.239Z,4.97
2023-01-09T07:42:03.544Z,4.97
2023-01-09T07:44:48.808Z,4.98
2023-01-09T07:47:33.890Z,4.79
2023-01-09T07:50:19.541Z,5.01
2023-01-09T07:53:04.920Z,5.02
2023-01-09T07:55:49.874Z,4.89
2023-01-09T07:58:35.143Z,4.96
2023-01-09T08:01:20.490Z,4.96
2023-01-09T08:04:05.740Z,4.89
2023-01-09T08:06:50.923Z,4.88
2023-01-09T08:09:35.836Z,4.99
2023-01-09T08:12:20.882Z,4.97
2023-01-09T08:15:07.099Z,4.93
2023-01-09T08:17:52.102Z,4.94
2023-01-09T08:20:37.108Z,4.93
2023-01-09T08:23:21.989Z,4.70
2023-01-09T08:26:07.109Z,4.87
2023-01-09T08:28:52.443Z,4.89
2023-01-09T08:31:37.825Z,4.88
2023-01-09T08:34:23.088Z,4.69
2023-01-09T08:37:07.999Z,4.86
2023-01-09T08:39:53.459Z,4.75
2023-01-09T08:42:57.069Z,4.85
2023-01-09T08:46:00.911Z,4.83
2023-01-09T08:48:47.917Z,4.77
2023-01-09T08:51:33.036Z,4.82
2023-01-09T08:54:18.276Z,4.82
2023-01-09T08:57:03.333Z,4.87
2023-01-09T08:59:48.540Z,4.90
2023-01-09T09:02:33.874Z,4.91
2023-01-09T09:05:19.100Z,4.94
2023-01-09T09:08:04.671Z,4.95
2023-01-09T09:10:49.528Z,4.98
2023-01-09T09:13:34.572Z,4.94
2023-01-09T09:16:19.680Z,5.00
2023-01-09T09:19:05.028Z,4.98
2023-01-09T09:21:50.316Z,5.12
2023-01-09T09:24:35.625Z,5.18
2023-01-09T09:27:20.699Z,5.18
2023-01-09T09:30:06.854Z,5.27
2023-01-09T09:32:51.798Z,5.22
2023-01-09T09:35:37.256Z,5.36
2023-01-09T09:38:22.494Z,5.37
2023-01-09T09:41:51.166Z,5.42
2023-01-09T09:44:54.729Z,5.50
2023-01-09T09:47:59.104Z,5.54
2023-01-09T09:51:19.900Z,5.59
2023-01-09T09:54:17.045Z,5.48
2023-01-09T09:57:04.445Z,5.64
2023-01-09T09:59:51.551Z,5.78
2023-01-09T10:02:47.374Z,5.82
2023-01-09T10:05:40.628Z,5.71
2023-01-09T10:09:03.667Z,6.16
2023-01-09T10:12:31.363Z,6.06
2023-01-09T10:15:38.398Z,6.06
2023-01-09T10:18:48.707Z,6.10
2023-01-09T10:21:33.548Z,6.12
2023-01-09T10:24:41.914Z,6.16
2023-01-09T10:27:58.561Z,6.21
2023-01-09T10:31:13.363Z,6.22
2023-01-09T10:34:26.207Z,6.29
2023-01-09T10:37:20.144Z,6.36
2023-01-09T10:40:13.697Z,6.30
2023-01-09T10:43:09.467Z,6.39
2023-01-09T10:46:00.030Z,6.43
2023-01-09T10:48:52.438Z,6.47
2023-01-09T10:52:00.849Z,6.48
2023-01-09T10:55:04.070Z,6.51
2023-01-09T10:57:59.556Z,6.50
2023-01-09T11:00:46.603Z,6.65
2023-01-09T11:03:31.704Z,6.69
2023-01-09T11:06:23.519Z,6.72
2023-01-09T11:09:08.532Z,6.71
2023-01-09T11:11:53.504Z,6.72
2023-01-09T11:14:38.777Z,6.76
2023-01-09T11:17:27.549Z,6.79
2023-01-09T11:20:15.770Z,6.83
2023-01-09T11:23:00.889Z,6.87
2023-01-09T11:25:53.524Z,6.93
2023-01-09T11:28:38.494Z,6.98
2023-01-09T11:31:25.002Z,6.99
2023-01-09T11:34:17.870Z,6.96
2023-01-09T11:37:04.558Z,6.92
2023-01-09T11:39:49.863Z,7.09
2023-01-09T11:42:53.386Z,7.13
2023-01-09T11:45:53.215Z,7.15
2023-01-09T11:48:57.010Z,6.99
2023-01-09T11:51:43.310Z,7.24
2023-01-09T11:54:37.831Z,7.27
2023-01-09T11:57:24.626Z,7.38
2023-01-09T12:00:28.328Z,7.25
2023-01-09T12:03:32.175Z,7.32
2023-01-09T12:06:17.097Z,7.39
2023-01-09T12:09:05.047Z,7.32
2023-01-09T12:11:59.932Z,7.38
2023-01-09T12:14:57.395Z,7.40
2023-01-09T12:17:51.571Z,7.82
2023-01-09T12:21:05.343Z,8.86
2023-01-09T12:24:25.568Z,9.65
2023-01-09T12:27:41.726Z,9.04
2023-01-09T12:30:48.619Z,8.48
2023-01-09T12:33:49.283Z,8.28
2023-01-09T12:36:50.983Z,8.00
2023-01-09T12:39:52.228Z,8.03
2023-01-09T12:43:04.979Z,8.02
2023-01-09T12:46:02.244Z,7.97
2023-01-09T12:48:59.872Z,8.02
2023-01-09T12:51:57.300Z,7.98
2023-01-09T12:55:13.432Z,7.83
2023-01-09T12:58:04.090Z,8.02
2023-01-09T13:00:54.231Z,8.06
2023-01-09T13:03:48.013Z,7.98
2023-01-09T13:06:35.532Z,8.10
2023-01-09T13:09:37.792Z,8.21
2023-01-09T13:12:25.199Z,8.24
2023-01-09T13:15:32.083Z,8.21
2023-01-09T13:18:27.337Z,9.09
2023-01-09T13:21:13.586Z,8.66
2023-01-09T13:24:13.551Z,8.23
2023-01-09T13:27:06.922Z,8.18
2023-01-09T13:30:00.753Z,7.94
2023-01-09T13:33:07.857Z,7.93
2023-01-09T13:35:55.999Z,7.94
2023-01-09T13:38:40.879Z,7.89
2023-01-09T13:41:46.292Z,7.88
2023-01-09T13:44:33.661Z,7.88
2023-01-09T13:47:28.081Z,7.81
2023-01-09T13:50:27.339Z,7.87
2023-01-09T13:53:18.707Z,7.90
2023-01-09T13:56:06.656Z,7.95
2023-01-09T13:58:54.599Z,7.89
2023-01-09T14:01:42.320Z,7.98
2023-01-09T14:04:40.671Z,8.06
2023-01-09T14:07:49.122Z,8.14
2023-01-09T14:10:45.871Z,8.25
2023-01-09T14:13:38.041Z,8.44
2023-01-09T14:16:27.009Z,8.46
2023-01-09T14:19:15.497Z,8.54
2023-01-09T14:22:01.300Z,8.55
2023-01-09T14:24:49.379Z,8.55
2023-01-09T14:28:23.696Z,8.42
2023-01-09T14:31:26.084Z,8.31
2023-01-09T14:34:39.000Z,8.22
2023-01-09T14:37:27.136Z,8.15
2023-01-09T14:40:23.495Z,8.02
2023-01-09T14:43:26.216Z,7.85
2023-01-09T14:46:16.042Z,7.84
2023-01-09T14:49:10.013Z,7.70
2023-01-09T14:51:56.162Z,7.81
2023-01-09T14:54:43.669Z,7.78
2023-01-09T14:57:31.240Z,7.63
2023-01-09T15:00:18.633Z,7.72
2023-01-09T15:03:04.043Z,7.69
2023-01-09T15:05:51.528Z,7.65
2023-01-09T15:08:36.822Z,7.66
2023-01-09T15:11:22.122Z,7.58
2023-01-09T15:14:10.225Z,7.54
2023-01-09T15:16:55.480Z,7.47
2023-01-09T15:19:45.090Z,7.56
2023-01-09T15:22:36.005Z,7.47
2023-01-09T15:25:38.100Z,7.50
2023-01-09T15:28:32.099Z,7.51
2023-01-09T15:31:22.243Z,7.50
2023-01-09T15:34:09.477Z,7.47
2023-01-09T15:36:55.315Z,7.45
2023-01-09T15:39:40.645Z,7.43
2023-01-09T15:42:47.322Z,7.43
2023-01-09T15:45:45.065Z,7.40
2023-01-09T15:48:33.297Z,7.33
2023-01-09T15:51:18.443Z,7.16
2023-01-09T15:54:04.163Z,7.20
2023-01-09T15:56:49.347Z,7.19
2023-01-09T15:59:34.591Z,7.12
2023-01-09T16:02:40.645Z,7.14
2023-01-09T16:05:25.925Z,7.16
2023-01-09T16:08:42.242Z,7.12
2023-01-09T16:11:30.990Z,7.10
2023-01-09T16:14:23.031Z,7.07
2023-01-09T16:17:15.487Z,7.16
2023-01-09T16:20:15.925Z,7.12
2023-01-09T16:23:02.759Z,7.10
2023-01-09T16:25:48.076Z,7.03
2023-01-09T16:28:33.414Z,7.00
2023-01-09T16:31:20.447Z,6.98
2023-01-09T16:34:07.227Z,6.97
2023-01-09T16:36:52.503Z,6.93
2023-01-09T16:39:38.705Z,6.88
2023-01-09T16:42:42.345Z,6.87
2023-01-09T16:45:38.833Z,6.80
2023-01-09T16:48:24.109Z,6.72
2023-01-09T16:51:18.730Z,6.71
2023-01-09T16:54:03.986Z,6.62
2023-01-09T16:56:52.396Z,6.69
2023-01-09T16:59:37.957Z,6.56
2023-01-09T17:02:23.155Z,6.50
2023-01-09T17:05:08.426Z,6.53
2023-01-09T17:07:54.569Z,6.53
2023-01-09T17:10:39.723Z,6.54
2023-01-09T17:13:25.813Z,6.56
2023-01-09T17:16:11.230Z,6.56
2023-01-09T17:18:56.667Z,6.52
2023-01-09T17:21:41.857Z,6.43
2023-01-09T17:24:46.004Z,6.48
2023-01-09T17:27:52.982Z,6.49
2023-01-09T17:30:38.222Z,6.52
2023-01-09T17:33:23.049Z,6.46
2023-01-09T17:36:32.089Z,6.43
2023-01-09T17:39:17.610Z,6.38
2023-01-09T17:42:02.529Z,6.34
2023-01-09T17:44:47.630Z,6.30
2023-01-09T17:47:33.855Z,6.27
2023-01-09T17:50:20.910Z,6.25
2023-01-09T17:53:05.717Z,6.10
2023-01-09T17:55:50.803Z,6.17
2023-01-09T17:58:35.917Z,6.19
2023-01-09T18:01:21.667Z,6.17
2023-01-09T18:04:06.878Z,6.14
2023-01-09T18:06:54.476Z,6.13
2023-01-09T18:09:39.469Z,6.13
2023-01-09T18:12:24.689Z,5.92
2023-01-09T18:15:10.254Z,6.06
2023-01-09T18:17:55.289Z,6.07
2023-01-09T18:20:41.759Z,6.07
2023-01-09T18:23:27.321Z,6.06
2023-01-09T18:26:20.047Z,5.90
2023-01-09T18:29:05.288Z,5.84
2023-01-09T18:31:51.731Z,5.86
2023-01-09T18:34:36.680Z,5.93
2023-01-09T18:37:21.716Z,5.78
2023-01-09T18:40:08.582Z,5.87
2023-01-09T18:42:53.723Z,5.84
2023-01-09T18:45:39.185Z,5.82
2023-01-09T18:48:24.389Z,5.69
2023-01-09T18:51:09.813Z,5.63
2023-01-09T18:53:55.952Z,5.69
2023-01-09T18:56:41.234Z,5.58
2023-01-09T18:59:26.494Z,5.62
2023-01-09T19:02:25.905Z,5.56
2023-01-09T19:05:10.917Z,5.51
2023-01-09T19:07:56.740Z,5.38
2023-01-09T19:10:42.069Z,5.49
2023-01-09T19:13:32.558Z,5.51
2023-01-09T19:16:17.880Z,5.49
2023-01-09T19:19:03.383Z,5.43
2023-01-09T19:21:48.470Z,5.46
2023-01-09T19:24:33.734Z,5.43
2023-01-09T19:27:18.985Z,5.42
2023-01-09T19:30:04.923Z,5.29
2023-01-09T19:32:50.068Z,5.37
2023-01-09T19:35:35.044Z,5.37
2023-01-09T19:38:22.544Z,5.36
2023-01-09T19:41:14.560Z,5.33
2023-01-09T19:44:00.143Z,5.34
2023-01-09T19:46:45.039Z,5.36
2023-01-09T19:49:37.965Z,5.12
2023-01-09T19:52:23.269Z,5.30
2023-01-09T19:55:10.991Z,5.27
2023-01-09T19:57:56.223Z,5.29
2023-01-09T20:00:41.156Z,5.17
2023-01-09T20:03:26.181Z,5.25
2023-01-09T20:06:14.426Z,5.24
2023-01-09T20:09:01.918Z,5.23
2023-01-09T20:11:46.972Z,5.07
2023-01-09T20:14:32.043Z,5.17
2023-01-09T20:17:17.868Z,5.07
2023-01-09T20:20:03.072Z,5.12
2023-01-09T20:22:48.305Z,5.14
2023-01-09T20:25:33.323Z,5.11
2023-01-09T20:28:18.299Z,5.11
2023-01-09T20:31:05.682Z,5.14
2023-01-09T20:33:51.180Z,5.11
2023-01-09T20:36:36.425Z,5.11
2023-01-09T20:39:21.589Z,5.08
2023-01-09T20:42:06.726Z,5.10
2023-01-09T20:44:52.115Z,5.12
2023-01-09T20:47:37.164Z,5.07
2023-01-09T20:50:31.233Z,5.06
2023-01-09T20:53:16.541Z,4.95
2023-01-09T20:56:03.359Z,5.02
2023-01-09T20:58:48.383Z,4.98
2023-01-09T21:01:34.824Z,5.04
2023-01-09T21:04:20.418Z,5.04
2023-01-09T21:07:05.735Z,4.90
2023-01-09T21:09:51.045Z,5.03
2023-01-09T21:12:36.267Z,5.04
2023-01-09T21:15:21.708Z,5.07
2023-01-09T21:18:06.954Z,5.06
2023-01-09T21:20:52.156Z,4.91
2023-01-09T21:23:37.505Z,5.01
2023-01-09T21:26:27.358Z,4.91
2023-01-09T21:29:12.982Z,4.95
2023-01-09T21:31:58.468Z,4.84
2023-01-09T21:34:43.595Z,4.94
2023-01-09T21:37:29.920Z,4.89
2023-01-09T21:40:17.149Z,4.91
2023-01-09T21:43:20.633Z,4.95
2023-01-09T21:46:24.446Z,4.84
2023-01-09T21:49:09.657Z,4.83
2023-01-09T21:51:55.151Z,4.94
2023-01-09T21:54:41.645Z,4.86
2023-01-09T21:57:26.689Z,4.81
2023-01-09T22:00:12.444Z,4.81
2023-01-09T22:02:58.982Z,4.82
2023-01-09T22:05:44.108Z,4.89
2023-01-09T22:08:29.065Z,4.86
2023-01-09T22:11:16.091Z,4.85
2023-01-09T22:14:01.502Z,4.86
2023-01-09T22:16:47.060Z,4.82
2023-01-09T22:19:32.481Z,4.84
2023-01-09T22:22:17.347Z,4.84
2023-01-09T22:25:03.617Z,4.72
2023-01-09T22:27:48.949Z,4.81
2023-01-09T22:30:34.147Z,4.82
2023-01-09T22:33:18.939Z,4.70
2023-01-09T22:36:06.599Z,4.76
2023-01-09T22:38:56.571Z,4.64
2023-01-09T22:41:41.845Z,4.69
2023-01-09T22:44:27.193Z,4.53
2023-01-09T22:47:12.431Z,4.58
2023-01-09T22:49:57.325Z,4.57
2023-01-09T22:52:42.379Z,4.63
2023-01-09T22:55:27.575Z,4.67
2023-01-09T22:58:12.545Z,4.55
2023-01-09T23:00:58.464Z,4.52
2023-01-09T23:03:43.584Z,4.50
2023-01-09T23:06:28.624Z,4.59
2023-01-09T23:09:13.877Z,4.49
2023-01-09T23:12:02.012Z,4.61
2023-01-09T23:14:46.766Z,4.60
2023-01-09T23:17:31.841Z,4.58
2023-01-09T23:20:16.894Z,4.54
2023-01-09T23:23:02.099Z,4.51
2023-01-09T23:25:56.275Z,4.29
2023-01-09T23:28:41.481Z,4.48
2023-01-09T23:31:26.520Z,4.48
2023-01-09T23:34:22.896Z,4.45
2023-01-09T23:37:09.550Z,4.38
2023-01-09T23:39:54.986Z,4.40
2023-01-09T23:42:58.778Z,4.41
2023-01-09T23:45:45.419Z,4.39
2023-01-09T23:48:30.418Z,4.36
2023-01-09T23:51:15.686Z,4.37
2023-01-09T23:54:00.564Z,4.33
2023-01-09T23:56:45.655Z,4.32
2023-01-09T23:59:30.833Z,4.30
